sensor_id;sensor_type;location;lat;lon;timestamp;temperature;humidity
5806;DHT22;2929;50.810;8.342;2022-08-14T00:00:42;18.50;99.90
5806;DHT22;2929;50.810;8.342;2022-08-14T00:03:17;18.50;99.90
5806;DHT22;2929;50.810;8.342;2022-08-14T00:05:45;18.50;99.90
5806;DHT22;2929;50.810;8.342;2022-08-14T00:08:12;18.40;99.90
5806;DHT22;2929;50.810;8.342;2022-08-14T00:10:40;18.40;99.90
5806;DHT22;2929;50.810;8.342;2022-08-14T00:13:08;18.50;99.90
5806;DHT22;2929;50.810;8.342;2022-08-14T00:15:37;18.50;99.90
5806;DHT22;2929;50.810;8.342;2022-08-14T00:18:05;18.50;99.90
5806;DHT22;2929;50.810;8.342;2022-08-14T00:20:35;18.40;99.90
5806;DHT22;2929;50.810;8.342;2022-08-14T00:23:04;18.30;99.90
5806;DHT22;2929;50.810;8.342;2022-08-14T00:25:32;18.40;99.90
5806;DHT22;2929;50.810;8.342;2022-08-14T00:28:01;18.30;99.90
5806;DHT22;2929;50.810;8.342;2022-08-14T00:30:28;18.30;99.90
5806;DHT22;2929;50.810;8.342;2022-08-14T00:32:55;18.30;99.90
5806;DHT22;2929;50.810;8.342;2022-08-14T00:35:22;18.10;99.90
5806;DHT22;2929;50.810;8.342;2022-08-14T00:37:49;18.00;99.90
5806;DHT22;2929;50.810;8.342;2022-08-14T00:40:18;18.00;99.90
5806;DHT22;2929;50.810;8.342;2022-08-14T00:42:45;17.90;99.90
5806;DHT22;2929;50.810;8.342;2022-08-14T00:45:15;18.00;99.90
5806;DHT22;2929;50.810;8.342;2022-08-14T00:47:44;18.10;99.90
5806;DHT22;2929;50.810;8.342;2022-08-14T00:50:13;18.00;99.90
5806;DHT22;2929;50.810;8.342;2022-08-14T00:52:40;17.90;99.90
5806;DHT22;2929;50.810;8.342;2022-08-14T00:55:10;18.00;99.90
5806;DHT22;2929;50.810;8.342;2022-08-14T00:57:38;18.00;99.90
5806;DHT22;2929;50.810;8.342;2022-08-14T01:00:07;18.00;99.90
5806;DHT22;2929;50.810;8.342;2022-08-14T01:02:37;18.00;99.90
5806;DHT22;2929;50.810;8.342;2022-08-14T01:05:05;18.00;99.90
5806;DHT22;2929;50.810;8.342;2022-08-14T01:07:33;18.00;99.90
5806;DHT22;2929;50.810;8.342;2022-08-14T01:10:03;17.90;99.90
5806;DHT22;2929;50.810;8.342;2022-08-14T01:12:31;17.80;99.90
5806;DHT22;2929;50.810;8.342;2022-08-14T01:14:59;17.80;99.90
5806;DHT22;2929;50.810;8.342;2022-08-14T01:17:30;17.70;99.90
5806;DHT22;2929;50.810;8.342;2022-08-14T01:20:12;17.70;99.90
5806;DHT22;2929;50.810;8.342;2022-08-14T01:23:12;17.50;99.90
5806;DHT22;2929;50.810;8.342;2022-08-14T01:25:39;17.50;99.90
5806;DHT22;2929;50.810;8.342;2022-08-14T01:28:06;17.40;99.90
5806;DHT22;2929;50.810;8.342;2022-08-14T01:30:34;17.40;99.90
5806;DHT22;2929;50.810;8.342;2022-08-14T01:33:03;17.50;99.90
5806;DHT22;2929;50.810;8.342;2022-08-14T01:35:30;17.30;99.90
5806;DHT22;2929;50.810;8.342;2022-08-14T01:37:57;17.40;99.90
5806;DHT22;2929;50.810;8.342;2022-08-14T01:40:26;17.40;99.90
5806;DHT22;2929;50.810;8.342;2022-08-14T01:42:53;17.30;99.90
5806;DHT22;2929;50.810;8.342;2022-08-14T01:45:21;17.40;99.90
5806;DHT22;2929;50.810;8.342;2022-08-14T01:47:48;17.30;99.90
5806;DHT22;2929;50.810;8.342;2022-08-14T01:50:15;17.30;99.90
5806;DHT22;2929;50.810;8.342;2022-08-14T01:52:43;17.20;99.90
5806;DHT22;2929;50.810;8.342;2022-08-14T01:55:11;17.00;99.90
5806;DHT22;2929;50.810;8.342;2022-08-14T01:57:42;17.00;99.90
5806;DHT22;2929;50.810;8.342;2022-08-14T02:00:11;17.00;99.90
5806;DHT22;2929;50.810;8.342;2022-08-14T02:02:41;17.10;99.90
5806;DHT22;2929;50.810;8.342;2022-08-14T02:05:11;17.00;99.90
5806;DHT22;2929;50.810;8.342;2022-08-14T02:07:38;16.90;99.90
5806;DHT22;2929;50.810;8.342;2022-08-14T02:10:07;16.80;99.90
5806;DHT22;2929;50.810;8.342;2022-08-14T02:12:34;16.70;99.90
5806;DHT22;2929;50.810;8.342;2022-08-14T02:15:03;16.70;99.90
5806;DHT22;2929;50.810;8.342;2022-08-14T02:17:32;16.70;99.90
5806;DHT22;2929;50.810;8.342;2022-08-14T02:19:59;16.70;99.90
5806;DHT22;2929;50.810;8.342;2022-08-14T02:22:26;16.70;99.90
5806;DHT22;2929;50.810;8.342;2022-08-14T02:24:53;16.70;99.90
5806;DHT22;2929;50.810;8.342;2022-08-14T02:27:20;16.70;99.90
5806;DHT22;2929;50.810;8.342;2022-08-14T02:29:48;16.60;99.90
5806;DHT22;2929;50.810;8.342;2022-08-14T02:32:17;16.60;99.90
5806;DHT22;2929;50.810;8.342;2022-08-14T02:34:45;16.60;99.90
5806;DHT22;2929;50.810;8.342;2022-08-14T02:37:12;16.50;99.90
5806;DHT22;2929;50.810;8.342;2022-08-14T02:39:43;16.50;99.90
5806;DHT22;2929;50.810;8.342;2022-08-14T02:42:12;16.50;99.90
5806;DHT22;2929;50.810;8.342;2022-08-14T02:44:41;16.60;99.90
5806;DHT22;2929;50.810;8.342;2022-08-14T02:47:09;16.60;99.90
5806;DHT22;2929;50.810;8.342;2022-08-14T02:49:38;16.70;99.90
5806;DHT22;2929;50.810;8.342;2022-08-14T02:52:05;16.60;99.90
5806;DHT22;2929;50.810;8.342;2022-08-14T02:54:33;16.50;99.90
5806;DHT22;2929;50.810;8.342;2022-08-14T02:57:02;16.40;99.90
5806;DHT22;2929;50.810;8.342;2022-08-14T02:59:31;16.40;99.90
5806;DHT22;2929;50.810;8.342;2022-08-14T03:01:59;16.30;99.90
5806;DHT22;2929;50.810;8.342;2022-08-14T03:04:26;16.40;99.90
5806;DHT22;2929;50.810;8.342;2022-08-14T03:06:55;16.50;99.90
5806;DHT22;2929;50.810;8.342;2022-08-14T03:09:23;16.50;99.90
5806;DHT22;2929;50.810;8.342;2022-08-14T03:11:50;16.60;99.90
5806;DHT22;2929;50.810;8.342;2022-08-14T03:14:17;16.60;99.90
5806;DHT22;2929;50.810;8.342;2022-08-14T03:16:46;16.50;99.90
5806;DHT22;2929;50.810;8.342;2022-08-14T03:19:13;16.30;99.90
5806;DHT22;2929;50.810;8.342;2022-08-14T03:21:40;16.20;99.90
5806;DHT22;2929;50.810;8.342;2022-08-14T03:24:09;16.10;99.90
5806;DHT22;2929;50.810;8.342;2022-08-14T03:26:37;16.10;99.90
5806;DHT22;2929;50.810;8.342;2022-08-14T03:29:06;16.00;99.90
5806;DHT22;2929;50.810;8.342;2022-08-14T03:31:33;16.00;99.90
5806;DHT22;2929;50.810;8.342;2022-08-14T03:34:02;16.00;99.90
5806;DHT22;2929;50.810;8.342;2022-08-14T03:36:30;15.90;99.90
5806;DHT22;2929;50.810;8.342;2022-08-14T03:38:58;16.00;99.90
5806;DHT22;2929;50.810;8.342;2022-08-14T03:41:27;16.10;99.90
5806;DHT22;2929;50.810;8.342;2022-08-14T03:43:57;16.00;99.90
5806;DHT22;2929;50.810;8.342;2022-08-14T03:46:26;15.90;99.90
5806;DHT22;2929;50.810;8.342;2022-08-14T03:48:54;15.80;99.90
5806;DHT22;2929;50.810;8.342;2022-08-14T03:51:22;15.80;99.90
5806;DHT22;2929;50.810;8.342;2022-08-14T03:53:55;15.70;99.90
5806;DHT22;2929;50.810;8.342;2022-08-14T03:56:23;15.60;99.90
5806;DHT22;2929;50.810;8.342;2022-08-14T03:58:56;15.70;99.90
5806;DHT22;2929;50.810;8.342;2022-08-14T04:01:24;15.80;99.90
5806;DHT22;2929;50.810;8.342;2022-08-14T04:03:53;15.80;99.90
5806;DHT22;2929;50.810;8.342;2022-08-14T04:06:22;15.70;99.90
5806;DHT22;2929;50.810;8.342;2022-08-14T04:08:49;15.70;99.90
5806;DHT22;2929;50.810;8.342;2022-08-14T04:11:18;15.70;99.90
5806;DHT22;2929;50.810;8.342;2022-08-14T04:13:45;15.70;99.90
5806;DHT22;2929;50.810;8.342;2022-08-14T04:16:16;15.80;99.90
5806;DHT22;2929;50.810;8.342;2022-08-14T04:18:46;15.80;99.90
5806;DHT22;2929;50.810;8.342;2022-08-14T04:21:15;15.70;99.90
5806;DHT22;2929;50.810;8.342;2022-08-14T04:23:44;15.80;99.90
5806;DHT22;2929;50.810;8.342;2022-08-14T04:26:13;15.80;99.90
5806;DHT22;2929;50.810;8.342;2022-08-14T04:28:42;15.70;99.90
5806;DHT22;2929;50.810;8.342;2022-08-14T04:31:09;15.70;99.90
5806;DHT22;2929;50.810;8.342;2022-08-14T04:33:38;15.50;99.90
5806;DHT22;2929;50.810;8.342;2022-08-14T04:36:05;15.50;99.90
5806;DHT22;2929;50.810;8.342;2022-08-14T04:38:32;15.60;99.90
5806;DHT22;2929;50.810;8.342;2022-08-14T04:41:16;15.60;99.90
5806;DHT22;2929;50.810;8.342;2022-08-14T04:44:12;15.50;99.90
5806;DHT22;2929;50.810;8.342;2022-08-14T04:46:40;15.60;99.90
5806;DHT22;2929;50.810;8.342;2022-08-14T04:49:29;15.70;99.90
5806;DHT22;2929;50.810;8.342;2022-08-14T04:51:55;15.70;99.90
5806;DHT22;2929;50.810;8.342;2022-08-14T04:54:23;15.90;99.90
5806;DHT22;2929;50.810;8.342;2022-08-14T04:56:51;15.90;99.90
5806;DHT22;2929;50.810;8.342;2022-08-14T04:59:19;15.90;99.90
5806;DHT22;2929;50.810;8.342;2022-08-14T05:01:47;16.00;99.90
5806;DHT22;2929;50.810;8.342;2022-08-14T05:04:14;16.00;99.90
5806;DHT22;2929;50.810;8.342;2022-08-14T05:06:44;15.90;99.90
5806;DHT22;2929;50.810;8.342;2022-08-14T05:09:11;15.90;99.90
5806;DHT22;2929;50.810;8.342;2022-08-14T05:11:38;15.90;99.90
5806;DHT22;2929;50.810;8.342;2022-08-14T05:14:05;16.00;99.90
5806;DHT22;2929;50.810;8.342;2022-08-14T05:16:32;16.00;99.90
5806;DHT22;2929;50.810;8.342;2022-08-14T05:18:59;16.00;99.90
5806;DHT22;2929;50.810;8.342;2022-08-14T05:21:26;16.10;99.90
5806;DHT22;2929;50.810;8.342;2022-08-14T05:23:55;16.10;99.90
5806;DHT22;2929;50.810;8.342;2022-08-14T05:26:22;16.20;99.90
5806;DHT22;2929;50.810;8.342;2022-08-14T05:28:49;16.20;99.90
5806;DHT22;2929;50.810;8.342;2022-08-14T05:31:16;16.30;99.90
5806;DHT22;2929;50.810;8.342;2022-08-14T05:33:44;16.40;99.90
5806;DHT22;2929;50.810;8.342;2022-08-14T05:36:12;16.40;99.90
5806;DHT22;2929;50.810;8.342;2022-08-14T05:38:42;16.50;99.90
5806;DHT22;2929;50.810;8.342;2022-08-14T05:41:13;16.50;99.90
5806;DHT22;2929;50.810;8.342;2022-08-14T05:43:41;16.60;99.90
5806;DHT22;2929;50.810;8.342;2022-08-14T05:46:09;16.70;99.90
5806;DHT22;2929;50.810;8.342;2022-08-14T05:48:37;16.90;99.90
5806;DHT22;2929;50.810;8.342;2022-08-14T05:51:04;16.90;99.90
5806;DHT22;2929;50.810;8.342;2022-08-14T05:53:32;17.00;99.90
5806;DHT22;2929;50.810;8.342;2022-08-14T05:55:59;17.10;99.90
5806;DHT22;2929;50.810;8.342;2022-08-14T05:58:27;17.10;99.90
5806;DHT22;2929;50.810;8.342;2022-08-14T06:00:54;17.20;99.90
5806;DHT22;2929;50.810;8.342;2022-08-14T06:03:22;17.40;99.90
5806;DHT22;2929;50.810;8.342;2022-08-14T06:05:51;17.50;99.90
5806;DHT22;2929;50.810;8.342;2022-08-14T06:08:20;17.60;99.90
5806;DHT22;2929;50.810;8.342;2022-08-14T06:10:48;17.70;99.90
5806;DHT22;2929;50.810;8.342;2022-08-14T06:13:16;17.80;99.90
5806;DHT22;2929;50.810;8.342;2022-08-14T06:15:45;17.90;99.90
5806;DHT22;2929;50.810;8.342;2022-08-14T06:18:14;18.00;99.90
5806;DHT22;2929;50.810;8.342;2022-08-14T06:20:42;18.10;99.90
5806;DHT22;2929;50.810;8.342;2022-08-14T06:23:09;18.30;99.90
5806;DHT22;2929;50.810;8.342;2022-08-14T06:25:36;18.40;99.90
5806;DHT22;2929;50.810;8.342;2022-08-14T06:28:04;18.50;99.90
5806;DHT22;2929;50.810;8.342;2022-08-14T06:30:33;18.60;99.90
5806;DHT22;2929;50.810;8.342;2022-08-14T06:33:01;18.60;99.90
5806;DHT22;2929;50.810;8.342;2022-08-14T06:35:28;18.80;99.90
5806;DHT22;2929;50.810;8.342;2022-08-14T06:37:58;18.90;99.90
5806;DHT22;2929;50.810;8.342;2022-08-14T06:40:27;19.00;99.90
5806;DHT22;2929;50.810;8.342;2022-08-14T06:42:54;19.20;99.90
5806;DHT22;2929;50.810;8.342;2022-08-14T06:45:22;19.30;99.90
5806;DHT22;2929;50.810;8.342;2022-08-14T06:47:50;19.40;99.90
5806;DHT22;2929;50.810;8.342;2022-08-14T06:50:20;19.50;99.90
5806;DHT22;2929;50.810;8.342;2022-08-14T06:52:48;19.60;99.90
5806;DHT22;2929;50.810;8.342;2022-08-14T06:55:16;19.70;99.90
5806;DHT22;2929;50.810;8.342;2022-08-14T06:57:45;19.80;99.90
5806;DHT22;2929;50.810;8.342;2022-08-14T07:00:14;19.90;99.90
5806;DHT22;2929;50.810;8.342;2022-08-14T07:02:42;20.00;99.90
5806;DHT22;2929;50.810;8.342;2022-08-14T07:05:28;20.30;99.90
5806;DHT22;2929;50.810;8.342;2022-08-14T07:08:16;20.50;99.90
5806;DHT22;2929;50.810;8.342;2022-08-14T07:10:44;20.60;99.90
5806;DHT22;2929;50.810;8.342;2022-08-14T07:13:13;20.70;99.90
5806;DHT22;2929;50.810;8.342;2022-08-14T07:15:40;20.80;99.90
5806;DHT22;2929;50.810;8.342;2022-08-14T07:18:10;20.90;99.90
5806;DHT22;2929;50.810;8.342;2022-08-14T07:20:40;20.90;99.90
5806;DHT22;2929;50.810;8.342;2022-08-14T07:23:09;21.10;99.90
5806;DHT22;2929;50.810;8.342;2022-08-14T07:25:38;21.10;99.90
5806;DHT22;2929;50.810;8.342;2022-08-14T07:28:11;21.20;99.90
5806;DHT22;2929;50.810;8.342;2022-08-14T07:30:38;21.20;99.90
5806;DHT22;2929;50.810;8.342;2022-08-14T07:33:06;21.30;99.90
5806;DHT22;2929;50.810;8.342;2022-08-14T07:35:33;21.30;99.90
5806;DHT22;2929;50.810;8.342;2022-08-14T07:38:02;21.40;99.90
5806;DHT22;2929;50.810;8.342;2022-08-14T07:40:29;21.40;99.90
5806;DHT22;2929;50.810;8.342;2022-08-14T07:42:56;21.40;99.90
5806;DHT22;2929;50.810;8.342;2022-08-14T07:45:23;21.60;99.90
5806;DHT22;2929;50.810;8.342;2022-08-14T07:47:50;21.70;99.90
5806;DHT22;2929;50.810;8.342;2022-08-14T07:50:21;21.70;99.90
5806;DHT22;2929;50.810;8.342;2022-08-14T07:52:48;21.70;99.90
5806;DHT22;2929;50.810;8.342;2022-08-14T07:55:18;21.80;99.90
5806;DHT22;2929;50.810;8.342;2022-08-14T07:57:46;21.90;99.90
5806;DHT22;2929;50.810;8.342;2022-08-14T08:00:17;21.90;99.90
5806;DHT22;2929;50.810;8.342;2022-08-14T08:02:47;22.00;99.90
5806;DHT22;2929;50.810;8.342;2022-08-14T08:05:15;22.00;99.90
5806;DHT22;2929;50.810;8.342;2022-08-14T08:07:44;22.10;99.90
5806;DHT22;2929;50.810;8.342;2022-08-14T08:10:13;22.20;99.90
5806;DHT22;2929;50.810;8.342;2022-08-14T08:13:02;22.20;99.90
5806;DHT22;2929;50.810;8.342;2022-08-14T08:15:31;22.50;99.90
5806;DHT22;2929;50.810;8.342;2022-08-14T08:17:59;22.70;99.90
5806;DHT22;2929;50.810;8.342;2022-08-14T08:20:30;22.70;99.90
5806;DHT22;2929;50.810;8.342;2022-08-14T08:22:59;22.80;99.90
5806;DHT22;2929;50.810;8.342;2022-08-14T08:25:29;22.90;99.90
5806;DHT22;2929;50.810;8.342;2022-08-14T08:27:58;22.90;99.90
5806;DHT22;2929;50.810;8.342;2022-08-14T08:30:28;22.80;99.90
5806;DHT22;2929;50.810;8.342;2022-08-14T08:32:57;23.20;99.90
5806;DHT22;2929;50.810;8.342;2022-08-14T08:35:25;23.20;99.90
5806;DHT22;2929;50.810;8.342;2022-08-14T08:37:59;23.10;99.90
5806;DHT22;2929;50.810;8.342;2022-08-14T08:40:28;23.10;99.90
5806;DHT22;2929;50.810;8.342;2022-08-14T08:42:56;23.30;99.90
5806;DHT22;2929;50.810;8.342;2022-08-14T08:45:23;23.40;99.90
5806;DHT22;2929;50.810;8.342;2022-08-14T08:47:52;23.50;99.90
5806;DHT22;2929;50.810;8.342;2022-08-14T08:50:21;23.70;99.90
5806;DHT22;2929;50.810;8.342;2022-08-14T08:52:55;23.60;99.90
5806;DHT22;2929;50.810;8.342;2022-08-14T08:55:27;23.70;99.90
5806;DHT22;2929;50.810;8.342;2022-08-14T08:57:56;24.00;99.90
5806;DHT22;2929;50.810;8.342;2022-08-14T09:00:23;24.00;99.90
5806;DHT22;2929;50.810;8.342;2022-08-14T09:02:57;24.00;99.90
5806;DHT22;2929;50.810;8.342;2022-08-14T09:05:25;24.10;99.90
5806;DHT22;2929;50.810;8.342;2022-08-14T09:07:53;24.00;99.90
5806;DHT22;2929;50.810;8.342;2022-08-14T09:10:20;24.20;99.90
5806;DHT22;2929;50.810;8.342;2022-08-14T09:12:47;24.20;99.90
5806;DHT22;2929;50.810;8.342;2022-08-14T09:15:14;24.40;99.90
5806;DHT22;2929;50.810;8.342;2022-08-14T09:17:42;24.50;99.90
5806;DHT22;2929;50.810;8.342;2022-08-14T09:20:11;24.30;99.90
5806;DHT22;2929;50.810;8.342;2022-08-14T09:22:39;24.60;99.90
5806;DHT22;2929;50.810;8.342;2022-08-14T09:25:08;24.70;99.90
5806;DHT22;2929;50.810;8.342;2022-08-14T09:27:36;24.70;99.90
5806;DHT22;2929;50.810;8.342;2022-08-14T09:30:06;24.80;99.90
5806;DHT22;2929;50.810;8.342;2022-08-14T09:35:46;25.00;99.90
5806;DHT22;2929;50.810;8.342;2022-08-14T09:38:21;25.10;99.00
5806;DHT22;2929;50.810;8.342;2022-08-14T09:40:58;24.90;99.30
5806;DHT22;2929;50.810;8.342;2022-08-14T09:43:31;25.10;98.70
5806;DHT22;2929;50.810;8.342;2022-08-14T09:45:58;25.20;98.70
5806;DHT22;2929;50.810;8.342;2022-08-14T09:48:26;25.30;97.50
5806;DHT22;2929;50.810;8.342;2022-08-14T09:50:56;25.40;97.40
5806;DHT22;2929;50.810;8.342;2022-08-14T09:53:35;25.50;96.60
5806;DHT22;2929;50.810;8.342;2022-08-14T09:56:03;25.60;96.80
5806;DHT22;2929;50.810;8.342;2022-08-14T09:58:39;25.50;97.30
5806;DHT22;2929;50.810;8.342;2022-08-14T10:01:09;25.80;97.00
5806;DHT22;2929;50.810;8.342;2022-08-14T10:03:45;25.90;96.80
5806;DHT22;2929;50.810;8.342;2022-08-14T10:06:16;25.80;96.60
5806;DHT22;2929;50.810;8.342;2022-08-14T10:08:47;25.90;97.10
5806;DHT22;2929;50.810;8.342;2022-08-14T10:11:17;25.90;96.60
5806;DHT22;2929;50.810;8.342;2022-08-14T10:13:46;26.00;97.30
5806;DHT22;2929;50.810;8.342;2022-08-14T10:16:16;26.40;97.30
5806;DHT22;2929;50.810;8.342;2022-08-14T10:18:44;26.50;96.10
5806;DHT22;2929;50.810;8.342;2022-08-14T10:21:16;26.70;95.20
5806;DHT22;2929;50.810;8.342;2022-08-14T10:23:46;26.80;95.50
5806;DHT22;2929;50.810;8.342;2022-08-14T10:26:18;26.80;94.80
5806;DHT22;2929;50.810;8.342;2022-08-14T10:28:49;26.80;95.30
5806;DHT22;2929;50.810;8.342;2022-08-14T10:31:21;27.10;94.60
5806;DHT22;2929;50.810;8.342;2022-08-14T10:34:00;27.20;93.30
5806;DHT22;2929;50.810;8.342;2022-08-14T10:36:31;27.40;93.40
5806;DHT22;2929;50.810;8.342;2022-08-14T10:38:59;27.40;93.50
5806;DHT22;2929;50.810;8.342;2022-08-14T10:41:38;27.50;93.30
5806;DHT22;2929;50.810;8.342;2022-08-14T10:44:09;27.40;92.70
5806;DHT22;2929;50.810;8.342;2022-08-14T10:46:42;27.50;93.50
5806;DHT22;2929;50.810;8.342;2022-08-14T10:49:17;27.80;92.80
5806;DHT22;2929;50.810;8.342;2022-08-14T10:51:57;27.80;92.10
5806;DHT22;2929;50.810;8.342;2022-08-14T10:54:38;27.90;92.10
5806;DHT22;2929;50.810;8.342;2022-08-14T10:57:14;28.00;92.00
5806;DHT22;2929;50.810;8.342;2022-08-14T10:59:49;28.40;90.90
5806;DHT22;2929;50.810;8.342;2022-08-14T11:02:26;28.10;91.00
5806;DHT22;2929;50.810;8.342;2022-08-14T11:04:59;27.70;92.50
5806;DHT22;2929;50.810;8.342;2022-08-14T11:07:28;28.10;91.50
5806;DHT22;2929;50.810;8.342;2022-08-14T11:09:58;28.40;90.30
5806;DHT22;2929;50.810;8.342;2022-08-14T11:12:26;28.80;90.80
5806;DHT22;2929;50.810;8.342;2022-08-14T11:14:54;28.60;89.30
5806;DHT22;2929;50.810;8.342;2022-08-14T11:17:25;28.10;91.60
5806;DHT22;2929;50.810;8.342;2022-08-14T11:19:57;28.60;90.80
5806;DHT22;2929;50.810;8.342;2022-08-14T11:22:28;28.70;90.00
5806;DHT22;2929;50.810;8.342;2022-08-14T11:25:00;28.30;89.90
5806;DHT22;2929;50.810;8.342;2022-08-14T11:27:30;28.00;90.40
5806;DHT22;2929;50.810;8.342;2022-08-14T11:30:00;27.90;90.90
5806;DHT22;2929;50.810;8.342;2022-08-14T11:32:28;27.60;90.70
5806;DHT22;2929;50.810;8.342;2022-08-14T11:34:56;28.30;90.90
5806;DHT22;2929;50.810;8.342;2022-08-14T11:37:23;29.00;90.50
5806;DHT22;2929;50.810;8.342;2022-08-14T11:39:51;29.60;85.10
5806;DHT22;2929;50.810;8.342;2022-08-14T11:42:20;30.20;83.20
5806;DHT22;2929;50.810;8.342;2022-08-14T11:44:48;30.60;85.70
5806;DHT22;2929;50.810;8.342;2022-08-14T11:47:15;30.20;82.90
5806;DHT22;2929;50.810;8.342;2022-08-14T11:49:45;29.60;83.80
5806;DHT22;2929;50.810;8.342;2022-08-14T11:52:13;29.20;85.10
5806;DHT22;2929;50.810;8.342;2022-08-14T11:54:40;29.00;86.50
5806;DHT22;2929;50.810;8.342;2022-08-14T11:57:16;29.00;86.50
5806;DHT22;2929;50.810;8.342;2022-08-14T11:59:44;29.90;86.10
5806;DHT22;2929;50.810;8.342;2022-08-14T12:02:13;30.40;81.30
5806;DHT22;2929;50.810;8.342;2022-08-14T12:04:50;31.10;83.30
5806;DHT22;2929;50.810;8.342;2022-08-14T12:07:18;31.60;80.80
5806;DHT22;2929;50.810;8.342;2022-08-14T12:09:46;31.70;80.60
5806;DHT22;2929;50.810;8.342;2022-08-14T12:12:20;31.00;77.80
5806;DHT22;2929;50.810;8.342;2022-08-14T12:14:48;30.30;80.50
5806;DHT22;2929;50.810;8.342;2022-08-14T12:17:17;29.80;82.00
5806;DHT22;2929;50.810;8.342;2022-08-14T12:19:46;30.50;86.40
5806;DHT22;2929;50.810;8.342;2022-08-14T12:22:17;31.60;76.90
5806;DHT22;2929;50.810;8.342;2022-08-14T12:25:10;31.20;77.20
5806;DHT22;2929;50.810;8.342;2022-08-14T12:27:42;30.50;78.20
5806;DHT22;2929;50.810;8.342;2022-08-14T12:30:25;29.80;78.50
5806;DHT22;2929;50.810;8.342;2022-08-14T12:33:05;29.20;81.00
5806;DHT22;2929;50.810;8.342;2022-08-14T12:35:38;29.10;81.90
5806;DHT22;2929;50.810;8.342;2022-08-14T12:38:15;28.90;80.70
5806;DHT22;2929;50.810;8.342;2022-08-14T12:40:49;29.70;83.50
5806;DHT22;2929;50.810;8.342;2022-08-14T12:43:21;30.20;79.20
5806;DHT22;2929;50.810;8.342;2022-08-14T12:45:52;30.70;78.10
5806;DHT22;2929;50.810;8.342;2022-08-14T12:48:25;31.50;78.40
5806;DHT22;2929;50.810;8.342;2022-08-14T12:50:54;32.20;75.30
5806;DHT22;2929;50.810;8.342;2022-08-14T12:53:33;32.30;75.30
5806;DHT22;2929;50.810;8.342;2022-08-14T12:56:04;31.90;71.10
5806;DHT22;2929;50.810;8.342;2022-08-14T12:58:35;31.60;73.10
5806;DHT22;2929;50.810;8.342;2022-08-14T13:01:11;30.70;75.00
5806;DHT22;2929;50.810;8.342;2022-08-14T13:03:46;30.40;76.50
5806;DHT22;2929;50.810;8.342;2022-08-14T13:06:27;30.80;76.00
5806;DHT22;2929;50.810;8.342;2022-08-14T13:08:59;31.70;77.80
5806;DHT22;2929;50.810;8.342;2022-08-14T13:11:40;32.20;70.00
5806;DHT22;2929;50.810;8.342;2022-08-14T13:14:13;32.70;69.80
5806;DHT22;2929;50.810;8.342;2022-08-14T13:16:45;33.10;67.30
5806;DHT22;2929;50.810;8.342;2022-08-14T13:19:18;33.50;64.40
5806;DHT22;2929;50.810;8.342;2022-08-14T13:21:47;33.60;65.70
5806;DHT22;2929;50.810;8.342;2022-08-14T13:24:15;34.20;66.30
5806;DHT22;2929;50.810;8.342;2022-08-14T13:26:44;34.20;63.60
5806;DHT22;2929;50.810;8.342;2022-08-14T13:29:14;33.80;62.70
5806;DHT22;2929;50.810;8.342;2022-08-14T13:31:44;33.40;63.60
5806;DHT22;2929;50.810;8.342;2022-08-14T13:34:14;32.70;65.60
5806;DHT22;2929;50.810;8.342;2022-08-14T13:36:41;32.50;65.10
5806;DHT22;2929;50.810;8.342;2022-08-14T13:39:09;32.90;65.00
5806;DHT22;2929;50.810;8.342;2022-08-14T13:41:37;33.60;65.30
5806;DHT22;2929;50.810;8.342;2022-08-14T13:44:04;33.80;62.70
5806;DHT22;2929;50.810;8.342;2022-08-14T13:46:32;33.90;64.80
5806;DHT22;2929;50.810;8.342;2022-08-14T13:48:59;34.40;61.60
5806;DHT22;2929;50.810;8.342;2022-08-14T13:51:31;34.70;60.00
5806;DHT22;2929;50.810;8.342;2022-08-14T13:54:02;34.60;64.10
5806;DHT22;2929;50.810;8.342;2022-08-14T13:56:29;35.10;61.50
5806;DHT22;2929;50.810;8.342;2022-08-14T13:58:57;35.40;57.80
5806;DHT22;2929;50.810;8.342;2022-08-14T14:01:26;35.00;58.50
5806;DHT22;2929;50.810;8.342;2022-08-14T14:03:55;34.70;59.40
5806;DHT22;2929;50.810;8.342;2022-08-14T14:06:24;35.00;59.10
5806;DHT22;2929;50.810;8.342;2022-08-14T14:08:54;35.30;59.50
5806;DHT22;2929;50.810;8.342;2022-08-14T14:11:22;35.30;57.40
5806;DHT22;2929;50.810;8.342;2022-08-14T14:13:49;35.10;57.40
5806;DHT22;2929;50.810;8.342;2022-08-14T14:16:17;35.40;57.50
5806;DHT22;2929;50.810;8.342;2022-08-14T14:18:46;35.70;57.20
5806;DHT22;2929;50.810;8.342;2022-08-14T14:21:18;35.40;56.90
5806;DHT22;2929;50.810;8.342;2022-08-14T14:23:46;35.30;57.00
5806;DHT22;2929;50.810;8.342;2022-08-14T14:26:13;35.40;56.40
5806;DHT22;2929;50.810;8.342;2022-08-14T14:28:43;35.80;55.00
5806;DHT22;2929;50.810;8.342;2022-08-14T14:31:16;36.10;54.50
5806;DHT22;2929;50.810;8.342;2022-08-14T14:33:48;36.50;54.60
5806;DHT22;2929;50.810;8.342;2022-08-14T14:36:22;36.50;53.40
5806;DHT22;2929;50.810;8.342;2022-08-14T14:38:53;36.30;53.50
5806;DHT22;2929;50.810;8.342;2022-08-14T14:41:22;36.10;55.60
5806;DHT22;2929;50.810;8.342;2022-08-14T14:43:51;35.90;54.40
5806;DHT22;2929;50.810;8.342;2022-08-14T14:46:20;36.00;54.70
5806;DHT22;2929;50.810;8.342;2022-08-14T14:48:48;36.40;53.90
5806;DHT22;2929;50.810;8.342;2022-08-14T14:51:17;36.20;54.40
5806;DHT22;2929;50.810;8.342;2022-08-14T14:53:46;35.90;54.20
5806;DHT22;2929;50.810;8.342;2022-08-14T14:56:13;35.70;55.40
5806;DHT22;2929;50.810;8.342;2022-08-14T14:58:41;35.80;55.40
5806;DHT22;2929;50.810;8.342;2022-08-14T15:01:09;35.70;52.90
5806;DHT22;2929;50.810;8.342;2022-08-14T15:03:37;35.90;54.00
5806;DHT22;2929;50.810;8.342;2022-08-14T15:06:05;36.00;56.40
5806;DHT22;2929;50.810;8.342;2022-08-14T15:08:33;35.50;54.50
5806;DHT22;2929;50.810;8.342;2022-08-14T15:11:01;35.20;54.20
5806;DHT22;2929;50.810;8.342;2022-08-14T15:13:28;34.90;55.20
5806;DHT22;2929;50.810;8.342;2022-08-14T15:15:56;35.10;54.00
5806;DHT22;2929;50.810;8.342;2022-08-14T15:18:23;34.90;55.30
5806;DHT22;2929;50.810;8.342;2022-08-14T15:20:51;35.10;53.80
5806;DHT22;2929;50.810;8.342;2022-08-14T15:23:20;35.20;56.50
5806;DHT22;2929;50.810;8.342;2022-08-14T15:25:47;34.90;55.20
5806;DHT22;2929;50.810;8.342;2022-08-14T15:28:15;34.50;54.50
5806;DHT22;2929;50.810;8.342;2022-08-14T15:30:44;35.10;55.30
5806;DHT22;2929;50.810;8.342;2022-08-14T15:33:12;35.20;54.30
5806;DHT22;2929;50.810;8.342;2022-08-14T15:35:39;35.30;55.80
5806;DHT22;2929;50.810;8.342;2022-08-14T15:38:06;35.50;53.00
5806;DHT22;2929;50.810;8.342;2022-08-14T15:40:34;35.10;54.20
5806;DHT22;2929;50.810;8.342;2022-08-14T15:43:03;34.80;52.90
5806;DHT22;2929;50.810;8.342;2022-08-14T15:45:32;34.70;54.70
5806;DHT22;2929;50.810;8.342;2022-08-14T15:47:59;34.60;54.40
5806;DHT22;2929;50.810;8.342;2022-08-14T15:50:26;34.20;53.20
5806;DHT22;2929;50.810;8.342;2022-08-14T15:52:55;34.20;53.80
5806;DHT22;2929;50.810;8.342;2022-08-14T15:55:22;34.40;54.20
5806;DHT22;2929;50.810;8.342;2022-08-14T15:57:49;34.90;54.50
5806;DHT22;2929;50.810;8.342;2022-08-14T16:00:16;35.00;52.80
5806;DHT22;2929;50.810;8.342;2022-08-14T16:03:03;34.80;51.80
5806;DHT22;2929;50.810;8.342;2022-08-14T16:05:34;34.90;52.40
5806;DHT22;2929;50.810;8.342;2022-08-14T16:08:05;34.60;51.10
5806;DHT22;2929;50.810;8.342;2022-08-14T16:10:32;34.20;52.20
5806;DHT22;2929;50.810;8.342;2022-08-14T16:13:00;33.50;53.60
5806;DHT22;2929;50.810;8.342;2022-08-14T16:15:27;33.00;54.00
5806;DHT22;2929;50.810;8.342;2022-08-14T16:17:56;32.60;54.10
5806;DHT22;2929;50.810;8.342;2022-08-14T16:20:28;32.30;56.00